Wichita Mid Continent Airport
KICT : rendu visible

Aérodrome :











RETROUVEZ-NOUS SUR...

 
LOGIN :

S'inscrire | Disclaimer

   EN    FR    IT 

 









Légende :    VFR   VFR Marginal   IFR   IFR Intensif   IFR Très Intensif
Visi : 
Plafond : 
>= 8 km
>= 3000ft
5 à 8 km
1000 à 3000 ft
1500m à 5 km
500 à 1000 ft
800 à 1500m
200 à 500 ft
< 800m
< 200 ft
Symboles :   Orages  Brouillard  Fortes neiges  Fortes précipitations  Vent > 20 kt






- Altitude de l'aérodrome : 1333 ft
- Code IATA : ICT


KICT - Wichita Mid Continent

DERNIER METAR :
  • 201853Z 19023G32KT 10SM OVC022 18/12 A2975 RMK AO2 PK WND 18032/1850 RAE00 SLP069 P0000 T01830122

METARs EXPIRÉS :
  • 201753Z 18020G31KT 10SM -RA OVC022 17/12 A2977 RMK AO2 PK WND 17037/1725 RAB52 SLP075 PCPN VRY LGT P0000 60000 T01720117 10178 20133 58001
  • 201653Z 18021G29KT 10SM BKN024 BKN140 OVC200 17/11 A2978 RMK AO2 PK WND 17034/1605 SLP080 T01720106

TAF KICT
Valide du 20 à 18h jusqu'au 21 à 18h UTC


201737Z 2018/2118 18026G34KT P6SM VCSH BKN020
FM210200 18018G28KT 6SM -SHRA VCTS OVC015CB WS020/19045KT
FM210800 24013G21KT P6SM VCSH OVC010
FM211000 28014KT P6SM VCSH BKN030
FM211200 32012KT P6SM SCT070



MET'MAP, la Météo Aéronautique d'un coup d'oeil ! - Copyright ORBIFLY Décembre 2007 - Disclaimer

ORBIFLY MET'MAP TEAM :

Programmation & Développement : Alexandra Zaïnal
Conception & Développement : Baudouin d'Aumeries
Co-Programmation & Développement : Marc-Olivier Méhu
Soutien technique & logistique : Manuel Goepfert

Contact : metmap@orbifly.com




SOURCES & CREDITS :

   NOAA       Earth
Advisory